Sant Lluis, Spain
Current Conditions -  °F | °C
As of 4:00 PM on Monday 24 Nov 2014 (Local Time) from LEMH Reporting Station
Clear Clear  
Wind Chill: 68°   Ceiling: Unl
Heat Index: 68°   Visibility: 6mi
Dew Point: 61°   Wind: 9mph
Humidity: 78%   Direction: 200°SSW
Pressure: 30.03"   Gusts: NA
Location:  39.85°N, 4.26°E
Report Text: LEMH 241500Z 20008KT 170V230 CAVOK 20/16 Q1017
Loading
Personal Weather Stations






























Interactive Weather Map New forecast layout! Learn more

10-Day Weather Forecast

Advertisements
Track Severe Weather on mobile